KAIK

Aiken Municipal Airport

Aiken, South Carolina, USA
METAR KAIK 232015Z AUTO 28003KT 10SM CLR 21/12 A3016 RMK AO2
Observed Flight Rules
Oct-23 @ 20:15 UTC (16 minutes ago) Visual Flight Rules
Wind Visibility Clouds
280° at 3 knots 10 miles
  • Clear skies
Temperatures Readings
Current 21°C / 70°F
Dewpoint 12°C / 54°F
Humidity 57%
Altimeter 30.16" Hg
Pressure 1021 hPa
Elevation 161
METAR KAIK 232015Z AUTO 28003KT 10SM CLR 21/12 A3016 RMK AO2
Observed Flight Rules
Oct-23 @ 20:15 UTC
(16 minutes ago)
VFR
Wind Visibility
280° at 3 knots 10 miles
Clouds
  • Clear skies
Temperature Dewpoint
21°C / 70°F 12°C / 54°F
Humidity Altimeter Pressure
57% 30.16" Hg 1021 hPa